sensor_id;sensor_type;location;lat;lon;timestamp;P1;durP1;ratioP1;P2;durP2;ratioP2
23155;SDS011;11746;50.876;4.246;2023-07-13T00:00:25;6.10;;;1.08;;
23155;SDS011;11746;50.876;4.246;2023-07-13T00:02:51;6.30;;;1.30;;
23155;SDS011;11746;50.876;4.246;2023-07-13T00:05:21;7.53;;;1.65;;
23155;SDS011;11746;50.876;4.246;2023-07-13T00:07:50;7.35;;;1.55;;
23155;SDS011;11746;50.876;4.246;2023-07-13T00:10:16;7.97;;;1.80;;
23155;SDS011;11746;50.876;4.246;2023-07-13T00:12:43;6.32;;;1.40;;
23155;SDS011;11746;50.876;4.246;2023-07-13T00:15:25;8.30;;;1.88;;
23155;SDS011;11746;50.876;4.246;2023-07-13T00:17:52;8.38;;;1.45;;
23155;SDS011;11746;50.876;4.246;2023-07-13T00:20:22;9.40;;;1.63;;
23155;SDS011;11746;50.876;4.246;2023-07-13T00:22:50;7.97;;;1.23;;
23155;SDS011;11746;50.876;4.246;2023-07-13T00:25:22;9.38;;;1.70;;
23155;SDS011;11746;50.876;4.246;2023-07-13T00:27:53;6.25;;;1.15;;
23155;SDS011;11746;50.876;4.246;2023-07-13T00:30:19;5.70;;;1.40;;
23155;SDS011;11746;50.876;4.246;2023-07-13T00:32:45;5.68;;;1.52;;
23155;SDS011;11746;50.876;4.246;2023-07-13T00:35:12;11.98;;;2.45;;
23155;SDS011;11746;50.876;4.246;2023-07-13T00:37:39;10.88;;;1.75;;
23155;SDS011;11746;50.876;4.246;2023-07-13T00:40:05;7.57;;;1.50;;
23155;SDS011;11746;50.876;4.246;2023-07-13T00:42:31;10.50;;;1.70;;
23155;SDS011;11746;50.876;4.246;2023-07-13T00:47:47;6.28;;;1.58;;
23155;SDS011;11746;50.876;4.246;2023-07-13T00:50:13;7.38;;;1.45;;
23155;SDS011;11746;50.876;4.246;2023-07-13T00:52:47;8.45;;;1.95;;
23155;SDS011;11746;50.876;4.246;2023-07-13T00:55:16;6.90;;;1.48;;
23155;SDS011;11746;50.876;4.246;2023-07-13T00:57:43;9.13;;;1.58;;
23155;SDS011;11746;50.876;4.246;2023-07-13T01:00:12;11.35;;;1.90;;
23155;SDS011;11746;50.876;4.246;2023-07-13T01:02:40;5.72;;;1.60;;
23155;SDS011;11746;50.876;4.246;2023-07-13T01:05:09;6.63;;;1.50;;
23155;SDS011;11746;50.876;4.246;2023-07-13T01:07:39;11.13;;;2.35;;
23155;SDS011;11746;50.876;4.246;2023-07-13T01:10:07;7.28;;;1.75;;
23155;SDS011;11746;50.876;4.246;2023-07-13T01:12:33;6.22;;;1.52;;
23155;SDS011;11746;50.876;4.246;2023-07-13T01:15:00;6.45;;;1.75;;
23155;SDS011;11746;50.876;4.246;2023-07-13T01:17:29;9.00;;;2.42;;
23155;SDS011;11746;50.876;4.246;2023-07-13T01:19:58;8.02;;;2.00;;
23155;SDS011;11746;50.876;4.246;2023-07-13T01:22:25;5.70;;;1.60;;
23155;SDS011;11746;50.876;4.246;2023-07-13T01:24:52;12.25;;;1.92;;
23155;SDS011;11746;50.876;4.246;2023-07-13T01:27:23;7.68;;;1.90;;
23155;SDS011;11746;50.876;4.246;2023-07-13T01:29:50;7.63;;;1.88;;
23155;SDS011;11746;50.876;4.246;2023-07-13T01:32:19;10.15;;;2.33;;
23155;SDS011;11746;50.876;4.246;2023-07-13T01:34:52;6.03;;;1.85;;
23155;SDS011;11746;50.876;4.246;2023-07-13T01:37:22;4.82;;;1.50;;
23155;SDS011;11746;50.876;4.246;2023-07-13T01:39:49;6.50;;;1.88;;
23155;SDS011;11746;50.876;4.246;2023-07-13T01:42:15;8.48;;;2.05;;
23155;SDS011;11746;50.876;4.246;2023-07-13T01:44:41;9.98;;;1.80;;
23155;SDS011;11746;50.876;4.246;2023-07-13T01:47:07;3.67;;;1.63;;
23155;SDS011;11746;50.876;4.246;2023-07-13T01:49:33;9.73;;;2.05;;
23155;SDS011;11746;50.876;4.246;2023-07-13T01:51:59;8.68;;;2.00;;
23155;SDS011;11746;50.876;4.246;2023-07-13T01:54:25;9.27;;;1.80;;
23155;SDS011;11746;50.876;4.246;2023-07-13T01:56:51;7.07;;;1.50;;
23155;SDS011;11746;50.876;4.246;2023-07-13T01:59:16;9.90;;;2.35;;
23155;SDS011;11746;50.876;4.246;2023-07-13T02:01:42;8.18;;;2.13;;
23155;SDS011;11746;50.876;4.246;2023-07-13T02:04:08;6.55;;;1.90;;
23155;SDS011;11746;50.876;4.246;2023-07-13T02:06:35;7.10;;;2.10;;
23155;SDS011;11746;50.876;4.246;2023-07-13T02:09:01;8.35;;;1.88;;
23155;SDS011;11746;50.876;4.246;2023-07-13T02:11:27;8.95;;;2.15;;
23155;SDS011;11746;50.876;4.246;2023-07-13T02:13:58;6.47;;;1.70;;
23155;SDS011;11746;50.876;4.246;2023-07-13T02:16:28;8.38;;;2.28;;
23155;SDS011;11746;50.876;4.246;2023-07-13T02:18:55;9.75;;;1.77;;
23155;SDS011;11746;50.876;4.246;2023-07-13T02:21:22;6.97;;;1.77;;
23155;SDS011;11746;50.876;4.246;2023-07-13T02:23:48;9.75;;;2.03;;
23155;SDS011;11746;50.876;4.246;2023-07-13T02:26:15;8.25;;;1.80;;
23155;SDS011;11746;50.876;4.246;2023-07-13T02:28:41;6.88;;;2.00;;
23155;SDS011;11746;50.876;4.246;2023-07-13T02:31:10;7.50;;;1.90;;
23155;SDS011;11746;50.876;4.246;2023-07-13T02:33:37;9.98;;;2.08;;
23155;SDS011;11746;50.876;4.246;2023-07-13T02:36:03;8.15;;;2.10;;
23155;SDS011;11746;50.876;4.246;2023-07-13T02:38:31;10.38;;;2.65;;
23155;SDS011;11746;50.876;4.246;2023-07-13T02:41:01;13.68;;;2.42;;
23155;SDS011;11746;50.876;4.246;2023-07-13T02:43:30;9.23;;;1.92;;
23155;SDS011;11746;50.876;4.246;2023-07-13T02:45:56;8.07;;;2.00;;
23155;SDS011;11746;50.876;4.246;2023-07-13T02:48:29;7.78;;;2.05;;
23155;SDS011;11746;50.876;4.246;2023-07-13T02:50:55;9.20;;;2.10;;
23155;SDS011;11746;50.876;4.246;2023-07-13T02:53:21;8.35;;;2.10;;
23155;SDS011;11746;50.876;4.246;2023-07-13T02:55:47;8.27;;;2.00;;
23155;SDS011;11746;50.876;4.246;2023-07-13T02:58:13;7.88;;;2.25;;
23155;SDS011;11746;50.876;4.246;2023-07-13T03:00:42;7.95;;;2.08;;
23155;SDS011;11746;50.876;4.246;2023-07-13T03:03:11;8.55;;;2.20;;
23155;SDS011;11746;50.876;4.246;2023-07-13T03:05:40;12.45;;;2.38;;
23155;SDS011;11746;50.876;4.246;2023-07-13T03:08:08;8.77;;;2.22;;
23155;SDS011;11746;50.876;4.246;2023-07-13T03:10:34;8.73;;;2.22;;
23155;SDS011;11746;50.876;4.246;2023-07-13T03:13:00;11.90;;;2.45;;
23155;SDS011;11746;50.876;4.246;2023-07-13T03:15:27;8.73;;;2.20;;
23155;SDS011;11746;50.876;4.246;2023-07-13T03:17:53;8.48;;;1.92;;
23155;SDS011;11746;50.876;4.246;2023-07-13T03:20:19;9.68;;;2.65;;
23155;SDS011;11746;50.876;4.246;2023-07-13T03:22:45;8.38;;;2.47;;
23155;SDS011;11746;50.876;4.246;2023-07-13T03:25:11;8.07;;;2.15;;
23155;SDS011;11746;50.876;4.246;2023-07-13T03:27:37;6.75;;;2.45;;
23155;SDS011;11746;50.876;4.246;2023-07-13T03:30:04;8.07;;;2.08;;
23155;SDS011;11746;50.876;4.246;2023-07-13T03:32:31;7.63;;;2.35;;
23155;SDS011;11746;50.876;4.246;2023-07-13T03:34:57;6.60;;;2.25;;
23155;SDS011;11746;50.876;4.246;2023-07-13T03:37:23;11.18;;;2.47;;
23155;SDS011;11746;50.876;4.246;2023-07-13T03:39:49;12.50;;;1.92;;
23155;SDS011;11746;50.876;4.246;2023-07-13T03:42:16;10.80;;;2.38;;
23155;SDS011;11746;50.876;4.246;2023-07-13T03:44:42;10.40;;;2.40;;
23155;SDS011;11746;50.876;4.246;2023-07-13T03:47:11;7.03;;;1.98;;
23155;SDS011;11746;50.876;4.246;2023-07-13T03:49:37;10.93;;;2.70;;
23155;SDS011;11746;50.876;4.246;2023-07-13T03:52:03;7.75;;;2.15;;
23155;SDS011;11746;50.876;4.246;2023-07-13T03:54:29;11.30;;;2.80;;
23155;SDS011;11746;50.876;4.246;2023-07-13T03:56:55;8.77;;;2.47;;
23155;SDS011;11746;50.876;4.246;2023-07-13T03:59:21;5.82;;;2.13;;
23155;SDS011;11746;50.876;4.246;2023-07-13T04:01:47;7.72;;;2.15;;
23155;SDS011;11746;50.876;4.246;2023-07-13T04:04:13;10.82;;;2.50;;
23155;SDS011;11746;50.876;4.246;2023-07-13T04:06:40;9.00;;;2.30;;
23155;SDS011;11746;50.876;4.246;2023-07-13T04:09:06;9.60;;;2.40;;
23155;SDS011;11746;50.876;4.246;2023-07-13T04:11:34;10.00;;;2.50;;
23155;SDS011;11746;50.876;4.246;2023-07-13T04:14:01;9.18;;;2.28;;
23155;SDS011;11746;50.876;4.246;2023-07-13T04:16:27;6.47;;;2.00;;
23155;SDS011;11746;50.876;4.246;2023-07-13T04:18:54;7.38;;;1.98;;
23155;SDS011;11746;50.876;4.246;2023-07-13T04:21:24;10.00;;;2.58;;
23155;SDS011;11746;50.876;4.246;2023-07-13T04:23:53;9.02;;;2.22;;
23155;SDS011;11746;50.876;4.246;2023-07-13T04:26:20;11.63;;;2.55;;
23155;SDS011;11746;50.876;4.246;2023-07-13T04:28:46;12.32;;;2.75;;
23155;SDS011;11746;50.876;4.246;2023-07-13T04:31:13;7.70;;;2.60;;
23155;SDS011;11746;50.876;4.246;2023-07-13T04:33:39;9.15;;;2.30;;
23155;SDS011;11746;50.876;4.246;2023-07-13T04:36:05;7.50;;;2.30;;
23155;SDS011;11746;50.876;4.246;2023-07-13T04:38:31;9.43;;;2.35;;
23155;SDS011;11746;50.876;4.246;2023-07-13T04:40:59;10.50;;;2.45;;
23155;SDS011;11746;50.876;4.246;2023-07-13T04:43:27;10.00;;;2.22;;
23155;SDS011;11746;50.876;4.246;2023-07-13T04:45:54;12.65;;;3.05;;
23155;SDS011;11746;50.876;4.246;2023-07-13T04:48:21;15.15;;;2.85;;
23155;SDS011;11746;50.876;4.246;2023-07-13T04:50:48;10.93;;;2.47;;
23155;SDS011;11746;50.876;4.246;2023-07-13T04:53:20;10.35;;;2.58;;
23155;SDS011;11746;50.876;4.246;2023-07-13T04:55:46;12.23;;;2.53;;
23155;SDS011;11746;50.876;4.246;2023-07-13T04:58:12;9.85;;;2.60;;
23155;SDS011;11746;50.876;4.246;2023-07-13T05:00:38;11.05;;;2.42;;
23155;SDS011;11746;50.876;4.246;2023-07-13T05:03:04;9.70;;;2.80;;
23155;SDS011;11746;50.876;4.246;2023-07-13T05:05:31;11.00;;;2.55;;
23155;SDS011;11746;50.876;4.246;2023-07-13T05:07:57;10.77;;;2.55;;
23155;SDS011;11746;50.876;4.246;2023-07-13T05:10:23;13.70;;;2.60;;
23155;SDS011;11746;50.876;4.246;2023-07-13T05:12:50;13.95;;;2.67;;
23155;SDS011;11746;50.876;4.246;2023-07-13T05:15:16;10.07;;;2.33;;
23155;SDS011;11746;50.876;4.246;2023-07-13T05:17:46;10.70;;;3.03;;
23155;SDS011;11746;50.876;4.246;2023-07-13T05:20:13;12.82;;;3.25;;
23155;SDS011;11746;50.876;4.246;2023-07-13T05:22:39;11.35;;;2.67;;
23155;SDS011;11746;50.876;4.246;2023-07-13T05:25:05;15.00;;;2.80;;
23155;SDS011;11746;50.876;4.246;2023-07-13T05:27:33;11.93;;;3.22;;
23155;SDS011;11746;50.876;4.246;2023-07-13T05:29:59;12.00;;;2.90;;
23155;SDS011;11746;50.876;4.246;2023-07-13T05:32:26;13.32;;;2.63;;
23155;SDS011;11746;50.876;4.246;2023-07-13T05:34:51;9.23;;;2.55;;
23155;SDS011;11746;50.876;4.246;2023-07-13T05:37:17;12.18;;;2.97;;
23155;SDS011;11746;50.876;4.246;2023-07-13T05:39:43;11.77;;;2.55;;
23155;SDS011;11746;50.876;4.246;2023-07-13T05:42:09;10.77;;;2.33;;
23155;SDS011;11746;50.876;4.246;2023-07-13T05:44:35;11.10;;;3.00;;
23155;SDS011;11746;50.876;4.246;2023-07-13T05:47:01;15.43;;;3.22;;
23155;SDS011;11746;50.876;4.246;2023-07-13T05:49:29;10.32;;;3.25;;
23155;SDS011;11746;50.876;4.246;2023-07-13T05:51:55;11.93;;;2.90;;
23155;SDS011;11746;50.876;4.246;2023-07-13T05:54:21;13.75;;;3.22;;
23155;SDS011;11746;50.876;4.246;2023-07-13T05:56:47;12.95;;;3.08;;
23155;SDS011;11746;50.876;4.246;2023-07-13T05:59:13;7.95;;;2.58;;
23155;SDS011;11746;50.876;4.246;2023-07-13T06:01:39;12.40;;;3.08;;
23155;SDS011;11746;50.876;4.246;2023-07-13T06:04:06;13.60;;;3.00;;
23155;SDS011;11746;50.876;4.246;2023-07-13T06:06:32;12.65;;;3.08;;
23155;SDS011;11746;50.876;4.246;2023-07-13T06:08:58;8.55;;;2.85;;
23155;SDS011;11746;50.876;4.246;2023-07-13T06:11:25;10.82;;;2.95;;
23155;SDS011;11746;50.876;4.246;2023-07-13T06:13:52;14.48;;;3.13;;
23155;SDS011;11746;50.876;4.246;2023-07-13T06:16:19;11.88;;;2.88;;
23155;SDS011;11746;50.876;4.246;2023-07-13T06:18:45;17.65;;;3.75;;
23155;SDS011;11746;50.876;4.246;2023-07-13T06:21:14;13.25;;;3.42;;
23155;SDS011;11746;50.876;4.246;2023-07-13T06:23:44;9.82;;;2.60;;
23155;SDS011;11746;50.876;4.246;2023-07-13T06:26:15;14.18;;;4.25;;
23155;SDS011;11746;50.876;4.246;2023-07-13T06:28:42;13.00;;;3.63;;
23155;SDS011;11746;50.876;4.246;2023-07-13T06:31:09;15.00;;;3.20;;
23155;SDS011;11746;50.876;4.246;2023-07-13T06:33:36;11.50;;;3.13;;
23155;SDS011;11746;50.876;4.246;2023-07-13T06:36:03;7.63;;;2.53;;
23155;SDS011;11746;50.876;4.246;2023-07-13T06:38:30;14.52;;;3.30;;
23155;SDS011;11746;50.876;4.246;2023-07-13T06:40:57;15.52;;;3.55;;
23155;SDS011;11746;50.876;4.246;2023-07-13T06:43:23;12.32;;;3.22;;
23155;SDS011;11746;50.876;4.246;2023-07-13T06:45:50;12.65;;;3.15;;
23155;SDS011;11746;50.876;4.246;2023-07-13T06:48:17;8.75;;;3.42;;
23155;SDS011;11746;50.876;4.246;2023-07-13T06:50:44;8.60;;;2.90;;
23155;SDS011;11746;50.876;4.246;2023-07-13T06:53:10;9.10;;;3.08;;
23155;SDS011;11746;50.876;4.246;2023-07-13T06:55:38;13.40;;;3.83;;
23155;SDS011;11746;50.876;4.246;2023-07-13T06:58:04;12.77;;;3.08;;
23155;SDS011;11746;50.876;4.246;2023-07-13T07:00:30;13.65;;;3.42;;
23155;SDS011;11746;50.876;4.246;2023-07-13T07:02:56;12.25;;;3.05;;
23155;SDS011;11746;50.876;4.246;2023-07-13T07:05:22;20.42;;;3.30;;
23155;SDS011;11746;50.876;4.246;2023-07-13T07:07:51;11.85;;;3.55;;
23155;SDS011;11746;50.876;4.246;2023-07-13T07:10:19;12.93;;;3.40;;
23155;SDS011;11746;50.876;4.246;2023-07-13T07:12:45;8.95;;;3.10;;
23155;SDS011;11746;50.876;4.246;2023-07-13T07:15:11;14.15;;;3.22;;
23155;SDS011;11746;50.876;4.246;2023-07-13T07:17:37;14.35;;;3.83;;
23155;SDS011;11746;50.876;4.246;2023-07-13T07:20:04;12.38;;;3.33;;
23155;SDS011;11746;50.876;4.246;2023-07-13T07:22:31;11.32;;;3.55;;
23155;SDS011;11746;50.876;4.246;2023-07-13T07:24:57;10.40;;;2.75;;
23155;SDS011;11746;50.876;4.246;2023-07-13T07:27:23;17.58;;;3.15;;
23155;SDS011;11746;50.876;4.246;2023-07-13T07:29:49;16.60;;;3.38;;
23155;SDS011;11746;50.876;4.246;2023-07-13T07:32:15;13.57;;;3.20;;
23155;SDS011;11746;50.876;4.246;2023-07-13T07:34:41;11.02;;;2.60;;
23155;SDS011;11746;50.876;4.246;2023-07-13T07:37:09;14.95;;;3.47;;
23155;SDS011;11746;50.876;4.246;2023-07-13T07:39:37;12.23;;;2.75;;
23155;SDS011;11746;50.876;4.246;2023-07-13T07:42:03;10.38;;;2.80;;
23155;SDS011;11746;50.876;4.246;2023-07-13T07:44:30;12.02;;;3.05;;
23155;SDS011;11746;50.876;4.246;2023-07-13T07:46:56;8.68;;;2.58;;
23155;SDS011;11746;50.876;4.246;2023-07-13T07:49:23;11.38;;;3.13;;
23155;SDS011;11746;50.876;4.246;2023-07-13T07:51:49;11.18;;;2.83;;
23155;SDS011;11746;50.876;4.246;2023-07-13T07:54:14;11.57;;;3.15;;
23155;SDS011;11746;50.876;4.246;2023-07-13T07:56:40;7.55;;;2.60;;
23155;SDS011;11746;50.876;4.246;2023-07-13T07:59:06;9.05;;;2.97;;
23155;SDS011;11746;50.876;4.246;2023-07-13T08:01:32;11.45;;;3.05;;
23155;SDS011;11746;50.876;4.246;2023-07-13T08:03:58;13.38;;;3.08;;
23155;SDS011;11746;50.876;4.246;2023-07-13T08:06:24;8.15;;;2.92;;
23155;SDS011;11746;50.876;4.246;2023-07-13T08:08:50;10.13;;;2.60;;
23155;SDS011;11746;50.876;4.246;2023-07-13T08:11:16;11.77;;;2.67;;
23155;SDS011;11746;50.876;4.246;2023-07-13T08:13:42;10.10;;;2.90;;
23155;SDS011;11746;50.876;4.246;2023-07-13T08:16:08;9.55;;;2.92;;
23155;SDS011;11746;50.876;4.246;2023-07-13T08:18:34;9.07;;;2.85;;
23155;SDS011;11746;50.876;4.246;2023-07-13T08:21:04;9.18;;;2.60;;
23155;SDS011;11746;50.876;4.246;2023-07-13T08:23:31;9.60;;;3.00;;
23155;SDS011;11746;50.876;4.246;2023-07-13T08:25:57;9.23;;;2.92;;
23155;SDS011;11746;50.876;4.246;2023-07-13T08:28:24;9.80;;;2.40;;
23155;SDS011;11746;50.876;4.246;2023-07-13T08:30:50;14.93;;;3.15;;
23155;SDS011;11746;50.876;4.246;2023-07-13T08:33:17;11.32;;;3.05;;
23155;SDS011;11746;50.876;4.246;2023-07-13T08:35:47;12.88;;;3.47;;
23155;SDS011;11746;50.876;4.246;2023-07-13T08:38:13;14.65;;;3.00;;
23155;SDS011;11746;50.876;4.246;2023-07-13T08:40:39;10.60;;;2.60;;
23155;SDS011;11746;50.876;4.246;2023-07-13T08:43:08;10.13;;;3.08;;
23155;SDS011;11746;50.876;4.246;2023-07-13T08:48:34;11.38;;;3.00;;
23155;SDS011;11746;50.876;4.246;2023-07-13T08:53:43;7.63;;;2.22;;
23155;SDS011;11746;50.876;4.246;2023-07-13T08:56:21;6.15;;;2.15;;
23155;SDS011;11746;50.876;4.246;2023-07-13T08:58:51;9.75;;;2.70;;
23155;SDS011;11746;50.876;4.246;2023-07-13T09:01:29;6.85;;;2.30;;
23155;SDS011;11746;50.876;4.246;2023-07-13T09:04:11;7.85;;;2.15;;
23155;SDS011;11746;50.876;4.246;2023-07-13T09:07:05;9.43;;;2.70;;
23155;SDS011;11746;50.876;4.246;2023-07-13T09:15:31;9.35;;;2.20;;
23155;SDS011;11746;50.876;4.246;2023-07-13T09:18:07;8.90;;;2.38;;
23155;SDS011;11746;50.876;4.246;2023-07-13T09:20:35;7.10;;;1.90;;
23155;SDS011;11746;50.876;4.246;2023-07-13T09:23:07;7.15;;;1.55;;
23155;SDS011;11746;50.876;4.246;2023-07-13T09:25:39;6.75;;;1.90;;
23155;SDS011;11746;50.876;4.246;2023-07-13T09:28:19;4.90;;;1.90;;
23155;SDS011;11746;50.876;4.246;2023-07-13T09:33:18;7.78;;;1.77;;
23155;SDS011;11746;50.876;4.246;2023-07-13T09:35:47;8.35;;;2.13;;
23155;SDS011;11746;50.876;4.246;2023-07-13T09:38:17;8.45;;;2.30;;
23155;SDS011;11746;50.876;4.246;2023-07-13T09:41:03;7.68;;;2.83;;
23155;SDS011;11746;50.876;4.246;2023-07-13T09:46:34;8.18;;;2.10;;
23155;SDS011;11746;50.876;4.246;2023-07-13T09:49:00;7.45;;;1.80;;
23155;SDS011;11746;50.876;4.246;2023-07-13T09:51:26;10.20;;;2.20;;
23155;SDS011;11746;50.876;4.246;2023-07-13T09:53:53;9.50;;;2.90;;
23155;SDS011;11746;50.876;4.246;2023-07-13T09:56:23;9.00;;;2.53;;
23155;SDS011;11746;50.876;4.246;2023-07-13T09:58:52;6.05;;;1.92;;
23155;SDS011;11746;50.876;4.246;2023-07-13T10:01:35;5.57;;;2.03;;
23155;SDS011;11746;50.876;4.246;2023-07-13T10:04:09;5.40;;;1.60;;
23155;SDS011;11746;50.876;4.246;2023-07-13T10:06:38;6.53;;;1.65;;
23155;SDS011;11746;50.876;4.246;2023-07-13T10:09:09;5.32;;;1.67;;
23155;SDS011;11746;50.876;4.246;2023-07-13T10:11:36;7.97;;;1.58;;
23155;SDS011;11746;50.876;4.246;2023-07-13T10:16:39;5.05;;;1.75;;
23155;SDS011;11746;50.876;4.246;2023-07-13T10:24:28;6.57;;;2.17;;
23155;SDS011;11746;50.876;4.246;2023-07-13T10:27:10;7.68;;;1.75;;
23155;SDS011;11746;50.876;4.246;2023-07-13T10:29:52;6.03;;;2.03;;
23155;SDS011;11746;50.876;4.246;2023-07-13T10:32:40;5.45;;;1.88;;
23155;SDS011;11746;50.876;4.246;2023-07-13T10:35:08;9.45;;;2.30;;
23155;SDS011;11746;50.876;4.246;2023-07-13T10:37:48;7.90;;;2.60;;
23155;SDS011;11746;50.876;4.246;2023-07-13T10:40:25;7.20;;;1.92;;
23155;SDS011;11746;50.876;4.246;2023-07-13T10:42:57;10.63;;;2.72;;
23155;SDS011;11746;50.876;4.246;2023-07-13T10:45:27;8.45;;;3.15;;
23155;SDS011;11746;50.876;4.246;2023-07-13T10:47:59;6.03;;;2.47;;
23155;SDS011;11746;50.876;4.246;2023-07-13T10:50:26;7.97;;;2.50;;
23155;SDS011;11746;50.876;4.246;2023-07-13T10:52:56;8.45;;;2.33;;
23155;SDS011;11746;50.876;4.246;2023-07-13T10:55:32;7.88;;;2.28;;
23155;SDS011;11746;50.876;4.246;2023-07-13T10:58:22;5.95;;;2.17;;
23155;SDS011;11746;50.876;4.246;2023-07-13T11:03:54;4.97;;;1.70;;
23155;SDS011;11746;50.876;4.246;2023-07-13T11:09:31;6.07;;;1.83;;
23155;SDS011;11746;50.876;4.246;2023-07-13T11:12:01;6.43;;;1.90;;
23155;SDS011;11746;50.876;4.246;2023-07-13T11:14:42;5.72;;;1.92;;
23155;SDS011;11746;50.876;4.246;2023-07-13T11:28:12;4.25;;;1.33;;
23155;SDS011;11746;50.876;4.246;2023-07-13T11:36:21;6.43;;;1.60;;
23155;SDS011;11746;50.876;4.246;2023-07-13T11:41:27;6.55;;;1.85;;
23155;SDS011;11746;50.876;4.246;2023-07-13T11:44:10;6.10;;;2.10;;
23155;SDS011;11746;50.876;4.246;2023-07-13T11:46:44;5.75;;;1.95;;
23155;SDS011;11746;50.876;4.246;2023-07-13T11:49:16;5.93;;;1.90;;
23155;SDS011;11746;50.876;4.246;2023-07-13T11:51:46;8.32;;;1.90;;
23155;SDS011;11746;50.876;4.246;2023-07-13T11:56:51;6.20;;;2.28;;
23155;SDS011;11746;50.876;4.246;2023-07-13T11:59:18;8.27;;;2.63;;
23155;SDS011;11746;50.876;4.246;2023-07-13T12:01:46;4.70;;;1.85;;
23155;SDS011;11746;50.876;4.246;2023-07-13T12:04:25;7.20;;;1.58;;
23155;SDS011;11746;50.876;4.246;2023-07-13T12:07:11;9.55;;;1.88;;
23155;SDS011;11746;50.876;4.246;2023-07-13T12:09:42;4.80;;;1.55;;
23155;SDS011;11746;50.876;4.246;2023-07-13T12:12:12;3.72;;;1.25;;
23155;SDS011;11746;50.876;4.246;2023-07-13T12:14:41;4.70;;;1.30;;
23155;SDS011;11746;50.876;4.246;2023-07-13T12:17:18;5.35;;;1.27;;
23155;SDS011;11746;50.876;4.246;2023-07-13T12:19:47;3.13;;;1.17;;
23155;SDS011;11746;50.876;4.246;2023-07-13T12:22:14;3.60;;;1.42;;
23155;SDS011;11746;50.876;4.246;2023-07-13T12:24:43;3.05;;;1.10;;
23155;SDS011;11746;50.876;4.246;2023-07-13T12:27:22;3.45;;;1.20;;
23155;SDS011;11746;50.876;4.246;2023-07-13T12:29:58;3.92;;;1.50;;
23155;SDS011;11746;50.876;4.246;2023-07-13T12:32:27;4.40;;;1.48;;
23155;SDS011;11746;50.876;4.246;2023-07-13T12:34:57;3.42;;;1.30;;
23155;SDS011;11746;50.876;4.246;2023-07-13T12:37:35;2.88;;;1.38;;
23155;SDS011;11746;50.876;4.246;2023-07-13T12:40:01;4.50;;;1.50;;
23155;SDS011;11746;50.876;4.246;2023-07-13T12:42:31;2.80;;;1.60;;
23155;SDS011;11746;50.876;4.246;2023-07-13T12:44:58;6.20;;;1.80;;
23155;SDS011;11746;50.876;4.246;2023-07-13T12:47:41;3.50;;;1.65;;
23155;SDS011;11746;50.876;4.246;2023-07-13T12:50:12;3.83;;;2.00;;
23155;SDS011;11746;50.876;4.246;2023-07-13T12:52:44;3.90;;;1.70;;
23155;SDS011;11746;50.876;4.246;2023-07-13T12:55:17;7.90;;;2.30;;
23155;SDS011;11746;50.876;4.246;2023-07-13T12:57:51;3.33;;;1.70;;
23155;SDS011;11746;50.876;4.246;2023-07-13T13:02:53;2.80;;;1.23;;
23155;SDS011;11746;50.876;4.246;2023-07-13T13:05:21;2.85;;;1.45;;
23155;SDS011;11746;50.876;4.246;2023-07-13T13:07:49;4.60;;;1.52;;
23155;SDS011;11746;50.876;4.246;2023-07-13T13:10:15;2.50;;;1.45;;
23155;SDS011;11746;50.876;4.246;2023-07-13T13:12:41;5.78;;;1.98;;
23155;SDS011;11746;50.876;4.246;2023-07-13T13:15:08;2.28;;;1.17;;
23155;SDS011;11746;50.876;4.246;2023-07-13T13:17:35;3.40;;;1.30;;
23155;SDS011;11746;50.876;4.246;2023-07-13T13:20:01;4.07;;;1.20;;
23155;SDS011;11746;50.876;4.246;2023-07-13T13:22:27;2.80;;;1.17;;
23155;SDS011;11746;50.876;4.246;2023-07-13T13:24:53;2.83;;;1.38;;
23155;SDS011;11746;50.876;4.246;2023-07-13T13:27:21;1.80;;;0.95;;
23155;SDS011;11746;50.876;4.246;2023-07-13T13:29:49;2.35;;;1.10;;
23155;SDS011;11746;50.876;4.246;2023-07-13T13:32:17;3.28;;;0.95;;
23155;SDS011;11746;50.876;4.246;2023-07-13T13:34:44;3.15;;;1.10;;
23155;SDS011;11746;50.876;4.246;2023-07-13T13:37:23;2.08;;;1.17;;
23155;SDS011;11746;50.876;4.246;2023-07-13T13:39:51;3.40;;;1.20;;
23155;SDS011;11746;50.876;4.246;2023-07-13T13:42:18;2.97;;;1.13;;
23155;SDS011;11746;50.876;4.246;2023-07-13T13:44:46;3.17;;;1.25;;
23155;SDS011;11746;50.876;4.246;2023-07-13T13:50:17;5.35;;;1.20;;
23155;SDS011;11746;50.876;4.246;2023-07-13T13:52:47;3.78;;;1.45;;
23155;SDS011;11746;50.876;4.246;2023-07-13T13:57:47;2.90;;;1.13;;
23155;SDS011;11746;50.876;4.246;2023-07-13T14:00:13;4.68;;;1.30;;
23155;SDS011;11746;50.876;4.246;2023-07-13T14:02:42;4.47;;;1.60;;
23155;SDS011;11746;50.876;4.246;2023-07-13T14:05:23;3.55;;;1.02;;
23155;SDS011;11746;50.876;4.246;2023-07-13T14:07:53;5.70;;;1.17;;
23155;SDS011;11746;50.876;4.246;2023-07-13T14:10:21;3.03;;;1.23;;
23155;SDS011;11746;50.876;4.246;2023-07-13T14:12:48;2.33;;;1.08;;
23155;SDS011;11746;50.876;4.246;2023-07-13T14:15:24;3.33;;;1.27;;
23155;SDS011;11746;50.876;4.246;2023-07-13T14:17:57;3.67;;;1.20;;
23155;SDS011;11746;50.876;4.246;2023-07-13T14:20:24;3.45;;;1.20;;
23155;SDS011;11746;50.876;4.246;2023-07-13T14:22:51;4.82;;;1.30;;
23155;SDS011;11746;50.876;4.246;2023-07-13T14:25:18;3.40;;;1.35;;
23155;SDS011;11746;50.876;4.246;2023-07-13T14:27:45;3.42;;;1.13;;
23155;SDS011;11746;50.876;4.246;2023-07-13T14:30:16;4.53;;;1.20;;
23155;SDS011;11746;50.876;4.246;2023-07-13T14:32:43;4.05;;;1.25;;
23155;SDS011;11746;50.876;4.246;2023-07-13T14:35:12;2.78;;;1.27;;
23155;SDS011;11746;50.876;4.246;2023-07-13T14:37:39;3.65;;;1.05;;
23155;SDS011;11746;50.876;4.246;2023-07-13T14:42:42;2.78;;;0.95;;
23155;SDS011;11746;50.876;4.246;2023-07-13T14:45:15;3.03;;;1.00;;
23155;SDS011;11746;50.876;4.246;2023-07-13T14:47:47;3.70;;;1.10;;
23155;SDS011;11746;50.876;4.246;2023-07-13T14:52:40;3.83;;;1.25;;
23155;SDS011;11746;50.876;4.246;2023-07-13T14:55:14;2.75;;;0.90;;
23155;SDS011;11746;50.876;4.246;2023-07-13T15:00:18;6.30;;;1.40;;
23155;SDS011;11746;50.876;4.246;2023-07-13T15:02:50;4.72;;;0.98;;
23155;SDS011;11746;50.876;4.246;2023-07-13T15:05:23;2.58;;;1.05;;
23155;SDS011;11746;50.876;4.246;2023-07-13T15:07:52;3.13;;;1.00;;
23155;SDS011;11746;50.876;4.246;2023-07-13T15:10:19;4.18;;;1.10;;
23155;SDS011;11746;50.876;4.246;2023-07-13T15:12:47;4.93;;;1.30;;
23155;SDS011;11746;50.876;4.246;2023-07-13T15:15:13;3.45;;;1.20;;
23155;SDS011;11746;50.876;4.246;2023-07-13T15:17:43;2.75;;;1.02;;
23155;SDS011;11746;50.876;4.246;2023-07-13T15:20:32;1.67;;;1.05;;
23155;SDS011;11746;50.876;4.246;2023-07-13T15:22:58;4.32;;;1.25;;
23155;SDS011;11746;50.876;4.246;2023-07-13T15:25:25;3.88;;;1.40;;
23155;SDS011;11746;50.876;4.246;2023-07-13T15:27:52;3.35;;;1.10;;
23155;SDS011;11746;50.876;4.246;2023-07-13T15:30:19;2.55;;;1.08;;
23155;SDS011;11746;50.876;4.246;2023-07-13T15:32:46;1.73;;;0.90;;
23155;SDS011;11746;50.876;4.246;2023-07-13T15:35:16;2.63;;;1.10;;
23155;SDS011;11746;50.876;4.246;2023-07-13T15:37:47;3.65;;;1.35;;
23155;SDS011;11746;50.876;4.246;2023-07-13T15:40:15;2.95;;;1.10;;
23155;SDS011;11746;50.876;4.246;2023-07-13T15:42:41;4.30;;;1.35;;
23155;SDS011;11746;50.876;4.246;2023-07-13T15:47:45;4.38;;;1.70;;
23155;SDS011;11746;50.876;4.246;2023-07-13T15:50:13;3.35;;;1.40;;
23155;SDS011;11746;50.876;4.246;2023-07-13T15:52:41;3.67;;;1.17;;
23155;SDS011;11746;50.876;4.246;2023-07-13T15:55:11;2.50;;;1.20;;
23155;SDS011;11746;50.876;4.246;2023-07-13T15:57:39;3.42;;;1.17;;
23155;SDS011;11746;50.876;4.246;2023-07-13T16:00:16;5.05;;;1.30;;
23155;SDS011;11746;50.876;4.246;2023-07-13T16:02:48;2.55;;;1.10;;
23155;SDS011;11746;50.876;4.246;2023-07-13T16:05:17;2.78;;;1.15;;